Time;durP1;ratioP1;P1;durP2;ratioP2;P2;SDS_P1;SDS_P2;PMS_P1;PMS_P2;Temp;Humidity;BMP_temperature;BMP_pressure;BME280_temperature;BME280_humidity;BME280_pressure;Samples;Min_cycle;Max_cycle;Signal;HPM_P1;HPM_P2
2021/09/29 00:00:44;;;;;;;10.25;3.45;;;;;;;10.96;100.00;101637.13;6286128;28;20060;-78
2021/09/29 00:03:47;;;;;;;6.30;3.85;;;;;;;10.93;100.00;101637.25;6287290;28;20049;-77
2021/09/29 00:06:48;;;;;;;6.40;3.40;;;;;;;10.91;100.00;101637.31;6290155;28;20049;-78
2021/09/29 00:09:49;;;;;;;9.07;4.35;;;;;;;10.87;100.00;101638.34;6293010;28;20048;-78
2021/09/29 00:12:51;;;;;;;5.70;3.25;;;;;;;10.85;100.00;101629.66;6292669;28;20471;-78
2021/09/29 00:15:53;;;;;;;6.82;3.42;;;;;;;10.82;100.00;101627.16;6291020;28;20049;-78
2021/09/29 00:18:56;;;;;;;6.10;2.58;;;;;;;10.81;100.00;101635.09;6288512;28;20045;-78
2021/09/29 00:21:57;;;;;;;5.85;2.78;;;;;;;10.79;100.00;101636.94;6288295;28;20049;-77
2021/09/29 00:24:58;;;;;;;6.10;2.78;;;;;;;10.79;100.00;101636.94;6287784;28;20045;-77
2021/09/29 00:28:00;;;;;;;11.13;3.20;;;;;;;10.78;100.00;101632.59;6289115;28;20056;-77
2021/09/29 00:31:04;;;;;;;5.53;3.40;;;;;;;10.77;100.00;101628.28;6285511;28;20434;-79
2021/09/29 00:34:09;;;;;;;4.22;2.45;;;;;;;10.75;100.00;101620.41;6286286;28;20049;-78
2021/09/29 00:37:10;;;;;;;9.82;2.88;;;;;;;10.75;100.00;101614.31;6285469;28;20045;-77
2021/09/29 00:40:12;;;;;;;6.70;3.63;;;;;;;10.73;100.00;101622.28;6284288;28;20061;-75
2021/09/29 00:43:13;;;;;;;5.40;2.92;;;;;;;10.76;100.00;101608.13;6283612;28;20060;-78
2021/09/29 00:46:15;;;;;;;7.68;4.22;;;;;;;10.73;100.00;101603.03;6283428;28;20408;-78
2021/09/29 00:49:18;;;;;;;6.70;3.20;;;;;;;10.73;100.00;101601.25;6282901;28;20500;-79
2021/09/29 00:52:19;;;;;;;10.10;3.50;;;;;;;10.76;100.00;101603.72;6286006;28;20052;-78
2021/09/29 00:55:20;;;;;;;6.13;3.33;;;;;;;10.80;100.00;101593.94;6283346;28;20421;-78
2021/09/29 00:58:22;;;;;;;7.90;2.92;;;;;;;10.79;100.00;101592.25;6283670;28;20654;-78
2021/09/29 01:01:23;;;;;;;4.30;2.58;;;;;;;10.79;100.00;101590.47;6284453;28;20065;-76
2021/09/29 01:04:28;;;;;;;5.13;2.80;;;;;;;10.79;100.00;101584.34;6283480;28;20045;-77
2021/09/29 01:07:35;;;;;;;4.32;2.95;;;;;;;10.79;100.00;101579.09;6283667;28;20052;-78
2021/09/29 01:10:43;;;;;;;3.70;2.63;;;;;;;10.80;100.00;101573.75;6284055;28;20654;-78
2021/09/29 01:13:52;;;;;;;5.43;2.85;;;;;;;10.81;100.00;101572.00;6283637;28;20045;-79
2021/09/29 01:16:57;;;;;;;4.60;2.75;;;;;;;10.83;100.00;101567.53;6283715;28;20052;-78
2021/09/29 01:20:08;;;;;;;4.38;2.53;;;;;;;10.83;100.00;101560.50;6284698;28;20113;-78
2021/09/29 01:23:28;;;;;;;5.82;2.65;;;;;;;10.87;100.00;101562.09;6283652;28;20488;-77
2021/09/29 01:26:33;;;;;;;3.95;2.70;;;;;;;10.89;100.00;101564.66;6284213;28;20127;-78
2021/09/29 01:29:34;;;;;;;5.18;3.10;;;;;;;10.86;100.00;101557.75;6284728;28;20507;-78
2021/09/29 01:32:36;;;;;;;4.90;2.53;;;;;;;10.86;100.00;101556.91;6283751;28;20511;-78
2021/09/29 01:35:37;;;;;;;5.35;2.80;;;;;;;10.88;100.00;101563.78;6297591;23;20056;-76
2021/09/29 01:38:43;;;;;;;5.90;3.42;;;;;;;10.88;100.00;101555.91;6272644;28;20049;-77
2021/09/29 01:41:46;;;;;;;6.63;2.60;;;;;;;10.89;100.00;101551.50;6272938;28;20049;-76
2021/09/29 01:44:47;;;;;;;5.30;3.00;;;;;;;10.89;100.00;101540.97;6254300;28;20050;-76
2021/09/29 01:47:49;;;;;;;3.58;2.42;;;;;;;10.90;100.00;101533.03;6248388;28;20053;-77
2021/09/29 01:50:54;;;;;;;4.20;1.90;;;;;;;10.93;100.00;101538.16;6247838;28;20060;-76
2021/09/29 01:53:56;;;;;;;4.00;2.22;;;;;;;10.92;100.00;101530.34;6247810;28;20057;-77
2021/09/29 01:57:00;;;;;;;5.35;2.03;;;;;;;10.91;100.00;101529.50;6247788;28;20077;-76
2021/09/29 02:00:01;;;;;;;4.80;2.35;;;;;;;10.89;100.00;101519.94;6247942;28;20056;-77
2021/09/29 02:03:02;;;;;;;6.10;3.45;;;;;;;10.89;100.00;101523.41;6247568;28;20417;-77
2021/09/29 02:06:04;;;;;;;5.60;2.90;;;;;;;10.88;100.00;101507.72;6247347;28;20049;-77
2021/09/29 02:09:05;;;;;;;5.05;2.70;;;;;;;10.88;100.00;101500.69;6247514;28;20053;-77
2021/09/29 02:12:08;;;;;;;2.85;2.10;;;;;;;10.89;100.00;101512.91;6247231;28;20061;-77
2021/09/29 02:15:11;;;;;;;5.03;2.50;;;;;;;10.89;100.00;101505.00;6247205;28;20500;-77
2021/09/29 02:18:12;;;;;;;5.25;2.75;;;;;;;10.91;100.00;101504.97;6247165;28;20053;-77
2021/09/29 02:21:13;;;;;;;4.35;2.60;;;;;;;10.92;100.00;101498.78;6247299;28;20057;-77
2021/09/29 02:24:15;;;;;;;2.63;1.98;;;;;;;10.96;100.00;101503.00;6246360;28;20041;-77
2021/09/29 02:27:18;;;;;;;6.43;2.83;;;;;;;10.96;100.00;101500.38;6247417;28;20061;-77
2021/09/29 02:30:21;;;;;;;3.20;2.25;;;;;;;10.99;100.00;101494.09;6253160;28;20412;-76
2021/09/29 02:33:22;;;;;;;5.68;2.90;;;;;;;11.01;100.00;101487.00;6271068;28;20060;-77
2021/09/29 02:36:23;;;;;;;3.95;2.33;;;;;;;11.02;100.00;101486.09;6271263;28;20416;-77
2021/09/29 02:39:25;;;;;;;8.43;2.70;;;;;;;11.03;100.00;101485.16;6271682;28;20049;-78
2021/09/29 02:42:28;;;;;;;4.22;2.25;;;;;;;11.02;100.00;101486.09;6271601;28;20049;-77
2021/09/29 02:45:30;;;;;;;5.75;3.03;;;;;;;11.02;100.00;101476.41;6271192;28;20056;-77
2021/09/29 02:48:31;;;;;;;7.63;2.65;;;;;;;11.01;100.00;101474.72;6271505;28;20052;-78
2021/09/29 02:51:33;;;;;;;4.10;2.45;;;;;;;11.01;100.00;101460.72;6271425;28;20052;-78
2021/09/29 02:54:34;;;;;;;6.63;2.55;;;;;;;10.99;100.00;101458.16;6271084;28;20049;-78
2021/09/29 02:57:37;;;;;;;3.53;2.38;;;;;;;11.01;100.00;101461.56;6271232;28;20048;-77
2021/09/29 03:00:38;;;;;;;4.22;2.88;;;;;;;11.02;100.00;101458.00;6271448;28;20049;-77
2021/09/29 03:03:39;;;;;;;7.20;2.78;;;;;;;11.00;100.00;101451.97;6271020;28;20049;-77
2021/09/29 03:06:41;;;;;;;4.63;2.70;;;;;;;10.98;100.00;101448.53;6271026;28;20424;-77
2021/09/29 03:09:42;;;;;;;3.78;2.50;;;;;;;10.98;100.00;101452.94;6271247;28;20523;-77
2021/09/29 03:12:45;;;;;;;3.95;2.22;;;;;;;10.95;100.00;101447.84;6271121;28;20056;-78
2021/09/29 03:15:46;;;;;;;4.47;2.78;;;;;;;10.92;100.00;101449.66;6271014;28;20052;-77
2021/09/29 03:18:49;;;;;;;4.70;2.50;;;;;;;10.90;100.00;101443.63;6270899;28;20511;-77
2021/09/29 03:21:50;;;;;;;3.63;2.65;;;;;;;10.86;100.00;101442.06;6271173;28;20056;-77
2021/09/29 03:24:51;;;;;;;3.90;2.35;;;;;;;10.85;100.00;101448.22;6270602;28;20052;-76
2021/09/29 03:27:54;;;;;;;4.40;2.47;;;;;;;10.84;100.00;101443.88;6270914;28;20416;-78
2021/09/29 03:30:56;;;;;;;5.22;2.28;;;;;;;10.84;100.00;101446.50;6269954;28;20062;-77
2021/09/29 03:33:57;;;;;;;3.20;2.38;;;;;;;10.82;100.00;101442.25;6269375;28;20052;-78
2021/09/29 03:36:58;;;;;;;2.97;2.00;;;;;;;10.83;100.00;101438.69;6270217;28;20041;-77
2021/09/29 03:40:00;;;;;;;6.47;2.70;;;;;;;10.82;100.00;101431.75;6269631;28;20056;-77
2021/09/29 03:43:02;;;;;;;8.13;2.22;;;;;;;10.82;100.00;101427.34;6268650;28;20060;-77
2021/09/29 03:46:04;;;;;;;4.00;2.10;;;;;;;10.85;100.00;101423.69;6267888;28;20045;-77
2021/09/29 03:49:05;;;;;;;4.30;2.05;;;;;;;10.84;100.00;101420.22;6268861;28;20068;-77
2021/09/29 03:52:07;;;;;;;3.22;2.15;;;;;;;10.86;100.00;101417.53;6270613;28;20049;-77
2021/09/29 03:55:09;;;;;;;7.40;2.50;;;;;;;10.86;100.00;101417.53;6270362;28;20045;-77
2021/09/29 03:58:12;;;;;;;4.45;2.00;;;;;;;10.85;100.00;101416.66;6270578;28;20448;-77
2021/09/29 04:01:13;;;;;;;3.55;1.75;;;;;;;10.88;100.00;101413.91;6275131;28;20041;-77
2021/09/29 04:04:15;;;;;;;2.20;1.50;;;;;;;10.90;100.00;101405.94;6274610;28;20488;-78
2021/09/29 04:07:16;;;;;;;3.05;1.77;;;;;;;10.91;100.00;101400.63;6274932;28;20452;-78
2021/09/29 04:10:17;;;;;;;3.47;1.85;;;;;;;10.93;100.00;101398.78;6274760;28;20056;-78
2021/09/29 04:13:20;;;;;;;2.75;1.80;;;;;;;10.93;100.00;101396.16;6274651;28;20416;-78
2021/09/29 04:16:22;;;;;;;2.45;1.42;;;;;;;10.92;100.00;101381.28;6274780;28;20052;-78
2021/09/29 04:19:23;;;;;;;3.80;1.83;;;;;;;10.93;100.00;101384.78;6274501;28;20052;-78
2021/09/29 04:22:25;;;;;;;4.13;2.42;;;;;;;10.90;100.00;101377.00;6274687;28;20076;-78
2021/09/29 04:25:26;;;;;;;2.78;2.03;;;;;;;10.90;100.00;101379.66;6274167;28;20178;-79
2021/09/29 04:28:29;;;;;;;2.05;1.65;;;;;;;10.90;100.00;101384.91;6274674;28;20515;-76
2021/09/29 04:31:31;;;;;;;4.72;2.22;;;;;;;10.90;100.00;101384.91;6274311;28;20073;-78
2021/09/29 04:34:32;;;;;;;3.45;1.75;;;;;;;10.90;100.00;101390.16;6273964;28;20045;-78
2021/09/29 04:37:34;;;;;;;2.15;1.67;;;;;;;10.86;100.00;101380.72;6274283;28;20053;-78
2021/09/29 04:40:35;;;;;;;2.67;1.35;;;;;;;10.87;100.00;101383.28;6274439;28;20060;-78
2021/09/29 04:43:38;;;;;;;4.68;1.77;;;;;;;10.91;100.00;101384.00;6273948;28;20060;-77
2021/09/29 04:46:39;;;;;;;3.75;1.92;;;;;;;10.93;100.00;101377.75;6274016;28;20048;-78
2021/09/29 04:49:40;;;;;;;3.65;1.67;;;;;;;10.91;100.00;101374.34;6273988;28;20412;-78
2021/09/29 04:52:42;;;;;;;2.63;1.90;;;;;;;10.93;100.00;101375.09;6273816;28;20044;-78
2021/09/29 04:55:43;;;;;;;3.58;1.65;;;;;;;10.93;100.00;101382.16;6273725;28;20519;-77
2021/09/29 04:58:46;;;;;;;5.43;1.80;;;;;;;10.93;100.00;101379.50;6273707;28;20049;-76
2021/09/29 05:01:49;;;;;;;1.92;1.58;;;;;;;10.95;100.00;101376.84;6273994;28;20385;-78
2021/09/29 05:04:50;;;;;;;10.50;2.45;;;;;;;10.96;100.00;101371.50;6273307;28;20044;-78
2021/09/29 05:07:53;;;;;;;2.38;1.70;;;;;;;10.99;100.00;101375.75;6273898;28;20057;-77
2021/09/29 05:10:59;;;;;;;3.05;1.75;;;;;;;11.00;100.00;101370.44;6273381;28;20049;-78
2021/09/29 05:14:02;;;;;;;3.45;1.73;;;;;;;11.01;100.00;101373.94;6273325;28;20056;-77
2021/09/29 05:17:03;;;;;;;6.20;1.85;;;;;;;11.01;100.00;101369.50;6273277;28;20045;-77
2021/09/29 05:20:06;;;;;;;2.67;1.63;;;;;;;11.03;100.00;101358.91;6270225;28;20040;-77
2021/09/29 05:23:07;;;;;;;3.10;1.50;;;;;;;11.05;100.00;101367.59;6272002;28;20510;-77
2021/09/29 05:26:09;;;;;;;2.35;1.75;;;;;;;11.06;100.00;101364.03;6271732;28;20052;-77
2021/09/29 05:29:12;;;;;;;2.15;1.65;;;;;;;11.08;100.00;101368.31;6272361;28;20053;-77
2021/09/29 05:32:13;;;;;;;3.42;1.80;;;;;;;11.11;100.00;101355.00;6272442;28;20045;-77
2021/09/29 05:35:15;;;;;;;3.08;1.42;;;;;;;11.12;100.00;101354.09;6272423;28;20045;-77
2021/09/29 05:38:16;;;;;;;5.20;1.85;;;;;;;11.14;100.00;101356.66;6272634;28;20670;-76
2021/09/29 05:41:18;;;;;;;4.60;1.90;;;;;;;11.14;100.00;101346.16;6258112;28;20052;-77
2021/09/29 05:44:20;;;;;;;4.93;1.73;;;;;;;11.11;100.00;101338.38;6268347;28;20047;-77
2021/09/29 05:47:22;;;;;;;3.28;1.80;;;;;;;11.11;100.00;101343.63;6271651;28;20040;-77
2021/09/29 05:50:23;;;;;;;2.80;1.67;;;;;;;11.13;100.00;101341.81;6271196;28;20075;-77
2021/09/29 05:53:24;;;;;;;4.35;2.33;;;;;;;11.14;100.00;101343.50;6265238;28;20052;-76
2021/09/29 05:56:26;;;;;;;3.97;2.05;;;;;;;11.15;100.00;101343.44;6271952;28;20068;-77
2021/09/29 05:59:28;;;;;;;1.98;1.65;;;;;;;11.16;100.00;101344.28;6272243;28;20519;-77
2021/09/29 06:02:30;;;;;;;3.22;1.90;;;;;;;11.15;100.00;101330.28;6272000;28;20488;-77
2021/09/29 06:05:31;;;;;;;2.90;1.95;;;;;;;11.19;100.00;101333.63;6271915;28;20451;-76
2021/09/29 06:08:33;;;;;;;2.22;1.52;;;;;;;11.21;100.00;101330.91;6272119;28;20060;-76
2021/09/29 06:11:34;;;;;;;3.15;1.77;;;;;;;11.24;100.00;101322.88;6272069;28;20439;-77
2021/09/29 06:14:38;;;;;;;2.45;1.90;;;;;;;11.26;100.00;101316.59;6270734;28;20045;-76
2021/09/29 06:17:42;;;;;;;3.72;1.90;;;;;;;11.28;100.00;101330.56;6271961;28;20079;-77
2021/09/29 06:20:45;;;;;;;1.52;1.40;;;;;;;11.30;100.00;101330.47;6271372;28;20512;-77
2021/09/29 06:23:46;;;;;;;3.58;1.60;;;;;;;11.30;100.00;101326.06;6271619;28;20052;-79
2021/09/29 06:26:48;;;;;;;2.63;1.75;;;;;;;11.32;100.00;101315.50;6271857;28;20048;-79
2021/09/29 06:29:50;;;;;;;2.00;1.55;;;;;;;11.38;100.00;101323.94;6271594;28;20045;-76
2021/09/29 06:32:52;;;;;;;3.55;1.90;;;;;;;11.41;100.00;101315.91;6271692;28;20059;-76
2021/09/29 06:35:53;;;;;;;2.70;1.70;;;;;;;11.43;100.00;101305.28;6271245;28;20436;-79
2021/09/29 06:38:55;;;;;;;3.08;1.50;;;;;;;11.47;100.00;101316.53;6271846;28;20045;-76
2021/09/29 06:41:56;;;;;;;3.13;1.70;;;;;;;11.54;100.00;101316.19;6271450;28;20045;-76
2021/09/29 06:44:59;;;;;;;5.25;1.95;;;;;;;11.54;100.00;101302.16;6271136;28;20049;-76
2021/09/29 06:48:00;;;;;;;3.10;1.92;;;;;;;11.57;100.00;101299.38;6246612;28;20053;-76
2021/09/29 06:51:02;;;;;;;4.10;1.50;;;;;;;11.61;100.00;101293.03;6246803;28;20051;-78
2021/09/29 06:54:03;;;;;;;2.97;1.83;;;;;;;11.63;100.00;101284.13;6246478;28;20057;-78
2021/09/29 06:57:06;;;;;;;2.13;1.52;;;;;;;11.69;100.00;101275.06;6246479;28;20417;-77
2021/09/29 07:00:10;;;;;;;3.55;1.85;;;;;;;11.69;100.00;101283.81;6246777;28;20408;-77
2021/09/29 07:03:14;;;;;;;2.30;1.42;;;;;;;11.72;100.00;101277.56;6246503;28;20049;-78
2021/09/29 07:06:15;;;;;;;2.78;1.48;;;;;;;11.74;100.00;101259.91;6246429;28;20436;-78
2021/09/29 07:09:17;;;;;;;1.83;1.40;;;;;;;11.77;100.00;101258.91;6246474;28;20054;-77
2021/09/29 07:12:18;;;;;;;5.28;1.88;;;;;;;11.79;100.00;101259.66;6246521;28;20053;-78
2021/09/29 07:15:21;;;;;;;2.42;1.58;;;;;;;11.81;100.00;101269.22;6246163;28;20053;-78
2021/09/29 07:18:27;;;;;;;1.95;1.20;;;;;;;11.88;100.00;101273.25;6246534;28;20050;-77
2021/09/29 07:21:29;;;;;;;4.07;1.60;;;;;;;11.93;100.00;101281.78;6246301;28;20558;-78
2021/09/29 07:24:30;;;;;;;3.08;1.58;;;;;;;12.01;100.00;101272.66;6246250;28;20599;-78
2021/09/29 07:27:31;;;;;;;2.70;2.00;;;;;;;12.05;100.00;101261.88;6246263;28;20049;-77
2021/09/29 07:30:35;;;;;;;1.95;1.50;;;;;;;12.12;100.00;101267.66;6246432;28;20053;-77
2021/09/29 07:33:36;;;;;;;2.67;1.60;;;;;;;12.15;100.00;101265.72;6248884;28;20060;-78
2021/09/29 07:36:38;;;;;;;2.75;1.90;;;;;;;12.21;100.00;101267.19;6290581;22;20055;-77
2021/09/29 07:39:40;;;;;;;3.92;1.65;;;;;;;12.25;100.00;101266.09;6283301;28;20080;-77
2021/09/29 07:42:41;;;;;;;2.83;1.58;;;;;;;12.30;100.00;101261.44;6277650;28;20132;-77
2021/09/29 07:45:44;;;;;;;2.95;2.15;;;;;;;12.34;100.00;101262.13;6278905;28;20045;-77
2021/09/29 07:48:45;;;;;;;2.28;1.42;;;;;;;12.38;100.00;101256.63;6279964;28;20103;-76
2021/09/29 07:51:47;;;;;;;2.50;1.45;;;;;;;12.43;100.00;101257.22;6276496;28;20420;-75
2021/09/29 07:54:48;;;;;;;2.10;1.48;;;;;;;12.43;100.00;101259.88;6283568;28;20057;-77
2021/09/29 07:57:49;;;;;;;2.75;1.40;;;;;;;12.46;100.00;101264.13;6284988;28;20054;-78
2021/09/29 08:00:53;;;;;;;2.33;1.70;;;;;;;12.51;100.00;101258.63;6284903;28;20056;-77
2021/09/29 08:03:54;;;;;;;1.85;1.25;;;;;;;12.57;100.00;101271.47;6284262;28;20064;-78
2021/09/29 08:06:55;;;;;;;3.20;1.95;;;;;;;12.62;100.00;101261.53;6284050;28;20550;-78
2021/09/29 08:09:57;;;;;;;2.15;1.50;;;;;;;12.68;100.00;101261.22;6284315;28;20048;-78
2021/09/29 08:12:58;;;;;;;3.03;2.00;;;;;;;12.73;100.00;101258.31;6283553;28;20044;-78
2021/09/29 08:16:03;;;;;;;2.88;1.52;;;;;;;12.78;100.00;101259.78;6283856;28;20056;-78
2021/09/29 08:19:04;;;;;;;2.80;1.50;;;;;;;12.82;100.00;101247.28;6284082;28;20492;-76
2021/09/29 08:22:08;;;;;;;3.10;1.65;;;;;;;12.89;100.00;101257.38;6288156;28;20060;-76
2021/09/29 08:25:30;;;;;;;3.15;1.73;;;;;;;12.95;100.00;101257.06;6277271;28;20060;-76
2021/09/29 08:28:39;;;;;;;1.40;1.17;;;;;;;13.06;100.00;101245.06;6275081;28;20065;-76
2021/09/29 08:31:46;;;;;;;4.32;1.27;;;;;;;13.14;100.00;101248.13;6280599;28;20525;-77
2021/09/29 08:34:53;;;;;;;1.60;1.25;;;;;;;13.23;100.00;101250.28;6288374;28;20049;-75
2021/09/29 08:38:00;;;;;;;1.63;1.30;;;;;;;13.40;100.00;101252.84;6290689;28;20496;-76
2021/09/29 08:41:18;;;;;;;2.60;1.35;;;;;;;13.48;100.00;101251.53;6290616;28;20512;-76
2021/09/29 08:44:24;;;;;;;3.35;1.48;;;;;;;13.56;100.00;101246.66;6283452;28;20419;-78
2021/09/29 08:47:31;;;;;;;1.77;1.58;;;;;;;13.63;100.00;101248.00;6280771;28;20049;-75
2021/09/29 08:50:50;;;;;;;1.17;0.98;;;;;;;13.73;100.00;101233.31;6279389;28;20415;-76
2021/09/29 08:57:27;;;;;;;1.30;1.00;;;;;;;13.82;100.00;101227.50;6277322;28;20128;-78
2021/09/29 09:17:09;;;;;;;5.03;1.10;;;;;;;14.03;100.00;101206.84;6275069;28;20049;-76
2021/09/29 09:20:16;;;;;;;0.80;0.80;;;;;;;14.14;100.00;101201.78;6281645;28;20057;-76
2021/09/29 09:23:18;;;;;;;1.17;1.02;;;;;;;14.21;100.00;101202.25;6280154;28;20052;-78
2021/09/29 09:26:21;;;;;;;2.13;0.98;;;;;;;14.33;100.00;101192.72;6274829;28;20677;-78
2021/09/29 09:29:23;;;;;;;1.95;1.10;;;;;;;14.41;100.00;101188.66;6278726;28;20049;-76
2021/09/29 09:32:24;;;;;;;1.88;1.35;;;;;;;14.51;100.00;101185.47;6280742;28;20048;-78
2021/09/29 09:35:40;;;;;;;1.17;0.85;;;;;;;14.53;99.37;101178.28;6276707;28;20045;-77
2021/09/29 09:38:42;;;;;;;1.63;0.88;;;;;;;14.64;98.43;101179.31;6280384;28;20045;-78
2021/09/29 09:41:48;;;;;;;7.63;1.35;;;;;;;14.70;100.00;101170.13;6280703;28;20048;-78
2021/09/29 09:44:50;;;;;;;1.42;1.00;;;;;;;14.65;100.00;101156.34;6280399;28;20045;-78
2021/09/29 09:47:52;;;;;;;2.67;1.13;;;;;;;14.56;100.00;101146.34;6279954;28;20045;-78
2021/09/29 09:51:10;;;;;;;1.50;1.13;;;;;;;14.64;100.00;101147.56;6280178;28;20056;-78
2021/09/29 09:54:12;;;;;;;1.65;0.80;;;;;;;14.67;100.00;101151.78;6280511;28;20266;-78
2021/09/29 09:57:20;;;;;;;1.40;0.80;;;;;;;14.77;97.54;101144.13;6278154;28;20073;-78
2021/09/29 10:00:24;;;;;;;0.75;0.73;;;;;;;14.87;98.10;101134.66;6280371;28;20049;-78
2021/09/29 10:03:27;;;;;;;2.10;0.80;;;;;;;14.92;95.62;101138.69;6279749;28;20416;-78
2021/09/29 10:06:30;;;;;;;1.15;0.90;;;;;;;14.92;98.17;101132.56;6280792;28;20120;-77
2021/09/29 10:09:38;;;;;;;2.28;1.35;;;;;;;15.06;97.65;101132.50;6267785;28;20044;-78
2021/09/29 10:12:59;;;;;;;1.60;0.80;;;;;;;15.15;94.23;101123.94;6280322;28;20040;-78
2021/09/29 10:23:11;;;;;;;1.55;0.98;;;;;;;15.66;86.84;101132.00;6280223;28;20041;-78
2021/09/29 10:26:22;;;;;;;0.43;0.43;;;;;;;15.95;85.46;101119.41;6280833;28;20053;-79
2021/09/29 10:29:23;;;;;;;1.30;0.65;;;;;;;16.20;84.20;101115.00;6279555;28;20053;-78
2021/09/29 10:32:26;;;;;;;3.00;0.98;;;;;;;16.18;84.42;101120.44;6280324;28;20056;-78
2021/09/29 10:35:40;;;;;;;1.10;0.50;;;;;;;16.14;82.68;101121.59;6280050;28;20088;-77
2021/09/29 10:42:21;;;;;;;4.97;0.80;;;;;;;15.94;81.43;101119.47;6278282;28;20056;-77
2021/09/29 10:49:16;;;;;;;1.77;0.88;;;;;;;15.73;80.90;101114.72;6202003;28;20509;-77
2021/09/29 11:03:15;;;;;;;0.75;0.63;;;;;;;15.26;86.30;101125.88;6276412;28;20049;-78
2021/09/29 11:09:52;;;;;;;0.77;0.70;;;;;;;14.91;92.95;101121.13;6281960;28;20053;-78
2021/09/29 11:29:50;;;;;;;2.03;1.67;;;;;;;14.27;100.00;101092.66;6281275;28;20041;-77
2021/09/29 11:32:55;;;;;;;1.45;1.00;;;;;;;14.30;100.00;101097.72;6283030;28;20059;-78
2021/09/29 11:36:09;;;;;;;1.35;0.90;;;;;;;14.38;100.00;101098.94;6279518;28;20500;-78
2021/09/29 11:39:25;;;;;;;2.03;0.98;;;;;;;14.41;100.00;101093.47;6276181;28;20049;-78
2021/09/29 11:49:38;;;;;;;1.02;0.93;;;;;;;14.51;100.00;101077.88;6279266;28;20064;-78
2021/09/29 12:09:29;;;;;;;1.85;1.00;;;;;;;14.76;100.00;101069.22;6281696;28;20071;-78
2021/09/29 12:12:35;;;;;;;6.05;1.00;;;;;;;14.76;100.00;101061.28;6282396;28;20052;-78
2021/09/29 12:15:45;;;;;;;4.63;1.13;;;;;;;14.79;100.00;101061.06;6282755;28;20451;-78
2021/09/29 12:18:57;;;;;;;0.75;0.70;;;;;;;14.78;99.32;101055.88;6283078;28;20105;-78
2021/09/29 12:22:01;;;;;;;0.65;0.65;;;;;;;14.66;100.00;101058.34;6281835;28;20055;-77
2021/09/29 12:25:06;;;;;;;2.53;0.82;;;;;;;14.50;100.00;101060.31;6280591;28;20094;-77
2021/09/29 12:28:19;;;;;;;0.90;0.77;;;;;;;14.42;100.00;101060.78;6282587;28;20056;-78
2021/09/29 12:35:04;;;;;;;1.35;0.80;;;;;;;14.50;100.00;101065.63;6281276;28;20136;-78
2021/09/29 12:38:06;;;;;;;2.03;0.93;;;;;;;14.63;100.00;101061.22;6283225;28;20511;-78
2021/09/29 12:41:07;;;;;;;1.23;1.02;;;;;;;14.64;100.00;101062.91;6282873;28;20052;-77
2021/09/29 12:44:13;;;;;;;1.15;0.88;;;;;;;14.64;100.00;101062.91;6282017;28;20053;-78
2021/09/29 12:47:21;;;;;;;0.32;0.32;;;;;;;14.64;100.00;101062.91;6283940;28;20056;-78
2021/09/29 12:50:27;;;;;;;0.30;0.30;;;;;;;14.59;99.72;101058.88;6280582;28;20389;-77
2021/09/29 12:53:34;;;;;;;0.95;0.40;;;;;;;14.61;100.00;101057.81;6279716;28;20048;-78
2021/09/29 12:56:35;;;;;;;0.80;0.45;;;;;;;14.58;99.14;101050.09;6279981;28;20060;-78
2021/09/29 12:59:37;;;;;;;0.90;0.45;;;;;;;14.60;99.90;101052.63;6279990;28;20052;-77
2021/09/29 13:02:38;;;;;;;3.25;0.30;;;;;;;14.61;97.02;101049.03;6280529;28;20515;-78
2021/09/29 13:05:41;;;;;;;1.15;0.70;;;;;;;14.55;98.36;101047.66;6279574;28;20044;-78
2021/09/29 13:08:43;;;;;;;1.50;0.65;;;;;;;14.58;96.88;101044.81;6280844;28;20049;-78
2021/09/29 13:11:44;;;;;;;2.40;0.50;;;;;;;14.57;98.18;101042.25;6283079;28;20068;-78
2021/09/29 13:14:45;;;;;;;1.65;0.47;;;;;;;14.53;99.38;101040.75;6281543;28;20045;-78
2021/09/29 13:17:49;;;;;;;0.82;0.57;;;;;;;14.49;97.66;101040.13;6281130;28;20048;-79
2021/09/29 13:20:55;;;;;;;2.25;0.70;;;;;;;14.35;97.94;101048.91;6279428;28;20132;-78
2021/09/29 13:24:00;;;;;;;0.90;0.50;;;;;;;14.25;100.00;101103.28;6277819;28;20049;-75
2021/09/29 13:27:20;;;;;;;0.47;0.35;;;;;;;13.16;100.00;101124.84;6274039;28;20045;-78
2021/09/29 13:36:59;;;;;;;0.47;0.40;;;;;;;11.68;100.00;101134.69;6272030;23;20049;-79
2021/09/29 13:40:00;;;;;;;0.63;0.50;;;;;;;11.60;100.00;101126.34;6248445;28;20046;-77
2021/09/29 13:43:02;;;;;;;0.70;0.60;;;;;;;11.54;100.00;101117.91;6248958;28;20057;-77
2021/09/29 13:46:03;;;;;;;1.88;0.70;;;;;;;11.45;100.00;101116.59;6249139;28;20152;-77
2021/09/29 13:49:06;;;;;;;3.05;0.70;;;;;;;11.34;100.00;101116.28;6248488;28;20046;-78
2021/09/29 13:52:13;;;;;;;1.05;0.90;;;;;;;11.35;100.00;101115.34;6250052;28;20045;-77
2021/09/29 13:55:18;;;;;;;1.17;0.75;;;;;;;11.38;100.00;101115.19;6247079;28;20045;-78
2021/09/29 13:58:33;;;;;;;0.63;0.50;;;;;;;11.40;100.00;101113.34;6248435;28;20040;-77
2021/09/29 14:15:25;;;;;;;1.85;0.75;;;;;;;11.80;100.00;101133.19;6234367;28;20452;-77
2021/09/29 14:28:41;;;;;;;1.02;0.95;;;;;;;11.74;100.00;101166.91;6247871;28;20506;-77
2021/09/29 14:31:51;;;;;;;2.15;1.17;;;;;;;11.69;100.00;101167.13;6247436;28;20099;-77
2021/09/29 14:34:52;;;;;;;1.10;0.95;;;;;;;11.59;100.00;101168.53;6247137;28;20180;-77
2021/09/29 14:37:54;;;;;;;4.65;1.30;;;;;;;11.50;100.00;101161.97;6247007;28;20045;-76
2021/09/29 14:40:56;;;;;;;1.65;0.90;;;;;;;11.42;100.00;101164.13;6247147;28;20049;-77
2021/09/29 14:43:58;;;;;;;0.95;0.90;;;;;;;11.38;100.00;101162.56;6246679;28;20057;-76
2021/09/29 14:46:59;;;;;;;0.75;0.75;;;;;;;11.34;100.00;101166.28;6247611;28;20050;-80
2021/09/29 14:50:01;;;;;;;1.35;0.70;;;;;;;11.38;100.00;101170.47;6246922;28;20049;-78
2021/09/29 14:53:02;;;;;;;0.80;0.80;;;;;;;11.36;100.00;101170.53;6247167;28;20516;-75
2021/09/29 14:56:06;;;;;;;1.13;0.95;;;;;;;11.40;100.00;101166.00;6247451;28;20524;-76
2021/09/29 14:59:07;;;;;;;0.95;0.88;;;;;;;11.37;100.00;101184.56;6251455;28;20068;-77
2021/09/29 15:02:09;;;;;;;1.15;0.70;;;;;;;11.35;100.00;101199.53;6249224;28;20386;-79
2021/09/29 15:05:11;;;;;;;1.08;0.77;;;;;;;11.21;100.00;101192.31;6250435;28;20061;-80
2021/09/29 15:08:13;;;;;;;0.47;0.47;;;;;;;11.24;100.00;101200.09;6249444;28;20049;-79
2021/09/29 15:11:16;;;;;;;0.55;0.40;;;;;;;11.08;100.00;101210.50;6248472;28;20056;-79
2021/09/29 15:14:24;;;;;;;0.68;0.52;;;;;;;11.07;100.00;101219.31;6248384;28;20187;-81
2021/09/29 15:17:35;;;;;;;0.50;0.40;;;;;;;11.00;100.00;101219.69;6248569;28;20613;-79
2021/09/29 15:21:00;;;;;;;0.38;0.38;;;;;;;10.97;100.00;101233.81;6248194;28;20049;-78
2021/09/29 15:24:24;;;;;;;0.60;0.50;;;;;;;11.01;100.00;101230.13;6243265;28;20049;-79
2021/09/29 15:27:52;;;;;;;0.50;0.50;;;;;;;11.11;100.00;101235.78;6247112;28;20061;-76
2021/09/29 15:31:06;;;;;;;1.13;0.57;;;;;;;11.17;100.00;101230.22;6246470;28;20515;-76
2021/09/29 15:47:28;;;;;;;0.35;0.35;;;;;;;10.85;100.00;101232.59;6246560;28;20096;-78
2021/09/29 15:50:36;;;;;;;0.60;0.40;;;;;;;10.84;100.00;101241.44;6246668;28;20057;-79
2021/09/29 15:54:08;;;;;;;0.93;0.30;;;;;;;10.82;100.00;101253.81;6248111;28;20050;-79
2021/09/29 16:04:04;;;;;;;0.22;0.22;;;;;;;10.78;100.00;101278.53;6250555;28;20489;-79
2021/09/29 16:07:13;;;;;;;0.20;0.20;;;;;;;10.80;100.00;101279.28;6246691;28;20484;-77
2021/09/29 16:13:53;;;;;;;0.20;0.20;;;;;;;10.78;100.00;101280.31;6249995;28;20401;-76
2021/09/29 16:17:13;;;;;;;0.22;0.22;;;;;;;10.82;100.00;101285.34;6251021;28;20050;-78
2021/09/29 16:23:47;;;;;;;0.20;0.20;;;;;;;10.84;100.00;101285.28;6246515;28;20477;-78
2021/09/29 16:30:15;;;;;;;2.95;0.40;;;;;;;10.74;100.00;101294.50;6251243;28;19925;-78
2021/09/29 16:33:48;;;;;;;;;;;;;;;10.70;100.00;101292.94;6250830;28;20057;-76
2021/09/29 16:36:52;;;;;;;0.20;0.20;;;;;;;10.68;100.00;101302.69;6250064;28;19928;-79
2021/09/29 16:39:53;;;;;;;1.02;0.30;;;;;;;10.70;100.00;101300.81;6246714;28;20050;-79
2021/09/29 16:42:57;;;;;;;0.10;0.10;;;;;;;10.58;100.00;101303.09;6251485;28;20052;-79